createdAt,value
2018-07-19T00:01:59.053Z,11.77
2018-07-19T00:04:28.097Z,12.37
2018-07-19T00:06:57.300Z,12.80
2018-07-19T00:09:26.001Z,11.83
2018-07-19T00:11:54.741Z,11.93
2018-07-19T00:14:23.669Z,12.40
2018-07-19T00:16:52.749Z,12.13
2018-07-19T00:19:21.498Z,12.70
2018-07-19T00:21:50.218Z,12.60
2018-07-19T00:24:19.173Z,12.20
2018-07-19T00:26:48.568Z,12.10
2018-07-19T00:29:17.262Z,11.93
2018-07-19T00:31:46.905Z,11.73
2018-07-19T00:34:15.879Z,12.77
2018-07-19T00:36:44.559Z,12.90
2018-07-19T00:39:13.206Z,11.73
2018-07-19T00:41:45.505Z,12.17
2018-07-19T00:44:16.226Z,11.90
2018-07-19T00:46:45.753Z,11.97
2018-07-19T00:49:15.260Z,12.23
2018-07-19T00:51:43.914Z,11.30
2018-07-19T00:54:12.598Z,11.80
2018-07-19T00:56:41.182Z,11.43
2018-07-19T00:59:10.107Z,11.30
2018-07-19T01:01:38.919Z,11.37
2018-07-19T01:04:07.886Z,10.90
2018-07-19T01:06:36.810Z,11.43
2018-07-19T01:09:08.646Z,10.63
2018-07-19T01:11:37.670Z,11.33
2018-07-19T01:14:06.696Z,11.50
2018-07-19T01:16:35.466Z,10.53
2018-07-19T01:19:04.173Z,11.40
2018-07-19T01:21:33.599Z,11.07
2018-07-19T01:24:03.266Z,11.80
2018-07-19T01:26:33.148Z,10.60
2018-07-19T01:29:04.329Z,10.83
2018-07-19T01:31:33.278Z,10.93
2018-07-19T01:34:02.242Z,10.60
2018-07-19T01:36:31.153Z,11.23
2018-07-19T01:39:00.692Z,11.10
2018-07-19T01:42:40.627Z,11.00
2018-07-19T01:45:10.700Z,11.13
2018-07-19T01:47:39.897Z,11.00
2018-07-19T01:50:09.666Z,11.23
2018-07-19T01:52:38.955Z,11.63
2018-07-19T01:55:08.439Z,10.63
2018-07-19T01:57:37.131Z,10.50
2018-07-19T02:00:06.494Z,10.73
2018-07-19T02:02:35.143Z,10.10
2018-07-19T02:05:04.624Z,9.40
2018-07-19T02:07:35.076Z,10.07
2018-07-19T02:10:04.474Z,9.93
2018-07-19T02:12:33.614Z,10.30
2018-07-19T02:15:02.231Z,9.87
2018-07-19T02:17:31.806Z,10.10
2018-07-19T02:20:00.706Z,9.77
2018-07-19T02:22:30.767Z,9.50
2018-07-19T02:24:59.407Z,10.10
2018-07-19T02:27:28.333Z,10.10
2018-07-19T02:29:57.239Z,9.77
2018-07-19T02:32:26.626Z,10.10
2018-07-19T02:34:57.151Z,10.17
2018-07-19T02:37:26.068Z,9.30
2018-07-19T02:39:54.698Z,9.30
2018-07-19T02:42:23.961Z,10.07
2018-07-19T02:44:52.622Z,9.80
2018-07-19T02:47:21.574Z,10.50
2018-07-19T02:49:50.224Z,9.50
2018-07-19T02:52:18.910Z,10.07
2018-07-19T02:54:47.608Z,9.77
2018-07-19T02:57:16.230Z,9.23
2018-07-19T02:59:45.172Z,9.70
2018-07-19T03:02:16.553Z,9.90
2018-07-19T03:04:46.237Z,9.10
2018-07-19T03:07:15.434Z,9.27
2018-07-19T03:09:45.451Z,9.63
2018-07-19T03:12:15.457Z,9.20
2018-07-19T03:14:44.075Z,9.93
2018-07-19T03:17:12.977Z,10.30
2018-07-19T03:19:42.544Z,9.60
2018-07-19T03:22:13.935Z,9.13
2018-07-19T03:24:42.988Z,9.40
2018-07-19T03:27:11.814Z,9.20
2018-07-19T03:29:41.294Z,9.70
2018-07-19T03:32:09.939Z,9.30
2018-07-19T03:34:38.625Z,9.77
2018-07-19T03:37:07.266Z,9.80
2018-07-19T03:39:35.894Z,9.40
2018-07-19T03:42:04.556Z,9.70
2018-07-19T03:44:33.455Z,9.50
2018-07-19T03:47:02.109Z,9.60
2018-07-19T03:49:30.742Z,9.40
2018-07-19T03:52:01.657Z,9.70
2018-07-19T03:54:30.984Z,9.60
2018-07-19T03:57:01.613Z,9.70
2018-07-19T03:59:31.152Z,9.43
2018-07-19T04:01:59.851Z,10.00
2018-07-19T04:04:28.487Z,9.47
2018-07-19T04:06:57.157Z,9.97
2018-07-19T04:09:28.399Z,9.57
2018-07-19T04:11:58.400Z,9.87
2018-07-19T04:14:27.671Z,9.50
2018-07-19T04:16:58.345Z,9.90
2018-07-19T04:19:28.948Z,9.70
2018-07-19T04:21:59.600Z,9.80
2018-07-19T04:24:29.846Z,10.27
2018-07-19T04:26:58.642Z,9.40
2018-07-19T04:29:27.928Z,9.57
2018-07-19T04:31:58.034Z,9.70
2018-07-19T04:34:26.691Z,10.23
2018-07-19T04:36:55.366Z,9.63
2018-07-19T04:39:24.009Z,10.30
2018-07-19T04:41:52.881Z,10.00
2018-07-19T04:44:21.727Z,9.67
2018-07-19T04:46:54.484Z,9.77
2018-07-19T04:49:23.552Z,9.50
2018-07-19T04:51:52.209Z,10.10
2018-07-19T04:54:20.952Z,9.70
2018-07-19T04:56:50.203Z,9.90
2018-07-19T04:59:18.801Z,10.13
2018-07-19T05:01:48.097Z,10.00
2018-07-19T05:04:16.720Z,9.80
2018-07-19T05:06:45.404Z,9.47
2018-07-19T05:09:14.457Z,10.23
2018-07-19T05:11:43.362Z,9.43
2018-07-19T05:14:12.155Z,9.93
2018-07-19T05:16:40.784Z,10.67
2018-07-19T05:19:09.478Z,9.67
2018-07-19T05:21:38.180Z,10.13
2018-07-19T05:24:07.221Z,10.50
2018-07-19T05:26:36.126Z,11.60
2018-07-19T05:29:05.118Z,10.13
2018-07-19T05:31:33.789Z,10.50
2018-07-19T05:34:02.826Z,10.23
2018-07-19T05:36:31.790Z,10.90
2018-07-19T05:39:00.788Z,10.63
2018-07-19T05:41:29.427Z,10.80
2018-07-19T05:43:58.027Z,10.40
2018-07-19T05:46:26.950Z,9.87
2018-07-19T05:48:55.741Z,10.90
2018-07-19T05:51:24.630Z,10.77
2018-07-19T05:53:53.469Z,10.50
2018-07-19T05:56:22.179Z,12.33
2018-07-19T05:58:51.798Z,10.10
2018-07-19T06:01:20.495Z,10.73
2018-07-19T06:03:49.710Z,11.57
2018-07-19T06:06:18.902Z,10.97
2018-07-19T06:08:47.529Z,11.33
2018-07-19T06:11:16.182Z,11.10
2018-07-19T06:13:44.819Z,10.67
2018-07-19T06:16:13.808Z,11.70
2018-07-19T06:18:42.712Z,11.10
2018-07-19T06:21:12.269Z,10.83
2018-07-19T06:23:40.941Z,11.10
2018-07-19T06:26:09.633Z,11.00
2018-07-19T06:28:38.516Z,10.77
2018-07-19T06:31:07.168Z,11.47
2018-07-19T06:33:36.713Z,10.67
2018-07-19T06:36:05.937Z,10.77
2018-07-19T06:38:35.215Z,10.60
2018-07-19T06:41:04.621Z,11.43
2018-07-19T06:43:34.786Z,11.03
2018-07-19T06:46:03.457Z,11.10
2018-07-19T06:48:32.157Z,11.83
2018-07-19T06:51:01.202Z,10.87
2018-07-19T06:53:30.423Z,11.13
2018-07-19T06:56:00.300Z,11.03
2018-07-19T06:58:29.327Z,10.80
2018-07-19T07:00:57.965Z,11.00
2018-07-19T07:03:26.685Z,12.00
2018-07-19T07:05:55.834Z,11.07
2018-07-19T07:08:24.539Z,11.40
2018-07-19T07:10:53.191Z,11.60
2018-07-19T07:13:21.975Z,10.97
2018-07-19T07:15:50.624Z,11.40
2018-07-19T07:18:19.838Z,11.47
2018-07-19T07:20:49.957Z,12.23
2018-07-19T07:23:18.651Z,11.57
2018-07-19T07:25:50.786Z,12.47
2018-07-19T07:28:21.123Z,12.83
2018-07-19T07:30:49.802Z,12.30
2018-07-19T07:33:19.544Z,13.00
2018-07-19T07:35:48.869Z,13.23
2018-07-19T07:38:19.066Z,13.57
2018-07-19T07:40:48.365Z,13.10
2018-07-19T07:43:17.003Z,14.20
2018-07-19T07:45:45.694Z,12.37
2018-07-19T07:48:14.384Z,13.40
2018-07-19T07:50:49.750Z,13.47
2018-07-19T07:53:19.260Z,12.30
2018-07-19T07:55:50.004Z,11.73
2018-07-19T07:58:19.088Z,12.60
2018-07-19T08:00:47.721Z,12.67
2018-07-19T08:03:16.431Z,12.57
2018-07-19T08:05:45.119Z,13.70
2018-07-19T08:08:14.156Z,12.73
2018-07-19T08:10:43.462Z,12.40
2018-07-19T08:13:12.540Z,12.37
2018-07-19T08:15:41.259Z,12.20
2018-07-19T08:18:10.246Z,12.00
2018-07-19T08:20:38.862Z,13.20
2018-07-19T08:23:07.844Z,12.13
2018-07-19T08:25:36.481Z,12.83
2018-07-19T08:28:05.911Z,12.63
2018-07-19T08:30:34.646Z,12.87
2018-07-19T08:33:03.384Z,12.17
2018-07-19T08:35:32.289Z,11.90
2018-07-19T08:38:00.936Z,12.43
2018-07-19T08:40:29.596Z,12.30
2018-07-19T08:42:58.596Z,12.10
2018-07-19T08:45:27.537Z,11.70
2018-07-19T08:47:56.551Z,12.80
2018-07-19T08:50:25.210Z,12.60
2018-07-19T08:52:54.222Z,12.60
2018-07-19T08:55:23.228Z,12.33
2018-07-19T08:57:51.935Z,12.40
2018-07-19T09:00:20.699Z,12.40
2018-07-19T09:02:49.690Z,11.93
2018-07-19T09:05:18.344Z,11.63
2018-07-19T09:07:47.075Z,12.30
2018-07-19T09:10:15.825Z,12.73
2018-07-19T09:12:44.897Z,13.40
2018-07-19T09:15:13.661Z,15.90
2018-07-19T09:17:42.722Z,13.97
2018-07-19T09:20:11.703Z,13.97
2018-07-19T09:22:40.866Z,12.70
2018-07-19T09:25:09.899Z,13.37
2018-07-19T09:27:38.782Z,13.33
2018-07-19T09:30:08.052Z,12.37
2018-07-19T09:32:38.234Z,13.40
2018-07-19T09:35:06.866Z,13.70
2018-07-19T09:37:35.526Z,13.20
2018-07-19T09:40:04.260Z,12.93
2018-07-19T09:42:33.043Z,13.17
2018-07-19T09:45:01.737Z,11.70
2018-07-19T09:47:30.389Z,12.53
2018-07-19T09:49:59.040Z,12.13
2018-07-19T09:52:27.982Z,13.17
2018-07-19T09:54:59.157Z,12.30
2018-07-19T09:57:29.178Z,12.23
2018-07-19T09:59:58.189Z,12.33
2018-07-19T10:02:27.003Z,12.03
2018-07-19T10:04:55.957Z,12.40
2018-07-19T10:07:25.028Z,12.33
2018-07-19T10:09:54.054Z,13.47
2018-07-19T10:12:22.684Z,12.20
2018-07-19T10:14:51.277Z,12.03
2018-07-19T10:17:19.973Z,11.43
2018-07-19T10:19:48.890Z,11.80
2018-07-19T10:22:18.176Z,11.73
2018-07-19T10:24:46.841Z,12.20
2018-07-19T10:27:15.621Z,12.67
2018-07-19T10:29:44.642Z,12.60
2018-07-19T10:32:13.339Z,12.20
2018-07-19T10:34:41.977Z,12.50
2018-07-19T10:37:10.609Z,11.87
2018-07-19T10:39:39.953Z,11.90
2018-07-19T10:42:08.789Z,13.13
2018-07-19T10:44:37.669Z,11.77
2018-07-19T10:47:06.383Z,12.50
2018-07-19T10:49:35.068Z,12.10
2018-07-19T10:52:04.047Z,12.27
2018-07-19T10:54:32.682Z,11.70
2018-07-19T10:57:01.596Z,11.90
2018-07-19T10:59:30.878Z,11.73
2018-07-19T11:01:59.552Z,11.57
2018-07-19T11:04:28.523Z,11.20
2018-07-19T11:06:57.582Z,11.60
2018-07-19T11:09:26.585Z,11.03
2018-07-19T11:11:55.190Z,10.87
2018-07-19T11:14:24.196Z,11.07
2018-07-19T11:16:52.942Z,11.40
2018-07-19T11:19:21.917Z,10.90
2018-07-19T11:21:51.110Z,11.17
2018-07-19T11:24:19.954Z,11.93
2018-07-19T11:26:48.607Z,13.40
2018-07-19T11:29:17.519Z,11.70
2018-07-19T11:31:46.591Z,11.80
2018-07-19T11:34:15.751Z,11.57
2018-07-19T11:36:44.364Z,11.40
2018-07-19T11:39:13.337Z,11.07
2018-07-19T11:41:42.548Z,10.70
2018-07-19T11:44:12.269Z,10.90
2018-07-19T11:46:41.132Z,11.40
2018-07-19T11:49:10.087Z,11.00
2018-07-19T11:51:38.773Z,11.00
2018-07-19T11:54:08.317Z,11.27
2018-07-19T11:56:37.353Z,11.63
2018-07-19T11:59:06.407Z,11.30
2018-07-19T12:01:35.488Z,11.43
2018-07-19T12:04:04.405Z,11.30
2018-07-19T12:06:33.015Z,12.03
2018-07-19T12:09:01.906Z,11.30
2018-07-19T12:11:30.678Z,11.73
2018-07-19T12:13:59.441Z,11.33
2018-07-19T12:16:28.477Z,11.67
2018-07-19T12:18:57.356Z,11.40
2018-07-19T12:21:26.650Z,11.27
2018-07-19T12:23:55.241Z,10.50
2018-07-19T12:26:24.258Z,11.57
2018-07-19T12:28:53.480Z,10.70
2018-07-19T12:31:22.486Z,11.00
2018-07-19T12:33:51.130Z,10.80
2018-07-19T12:36:20.430Z,11.13
2018-07-19T12:38:49.522Z,10.07
2018-07-19T12:41:18.138Z,10.43
2018-07-19T12:43:46.876Z,11.03
2018-07-19T12:46:15.505Z,10.87
2018-07-19T12:48:44.381Z,11.20
2018-07-19T12:51:13.011Z,10.80
2018-07-19T12:53:41.653Z,11.33
2018-07-19T12:56:10.225Z,10.80
2018-07-19T12:58:39.344Z,10.10
2018-07-19T13:01:09.189Z,11.10
2018-07-19T13:03:37.859Z,10.63
2018-07-19T13:06:06.528Z,11.10
2018-07-19T13:08:35.188Z,11.00
2018-07-19T13:11:04.099Z,11.17
2018-07-19T13:13:33.300Z,10.67
2018-07-19T13:16:02.004Z,10.10
2018-07-19T13:18:30.941Z,11.40
2018-07-19T13:20:59.986Z,11.13
2018-07-19T13:23:29.570Z,10.47
2018-07-19T13:25:58.317Z,9.87
2018-07-19T13:28:26.972Z,10.70
2018-07-19T13:30:55.838Z,10.27
2018-07-19T13:33:24.845Z,9.70
2018-07-19T13:35:54.176Z,10.47
2018-07-19T13:38:22.791Z,10.37
2018-07-19T13:40:52.645Z,9.60
2018-07-19T13:43:21.567Z,9.57
2018-07-19T13:45:50.589Z,9.40
2018-07-19T13:48:19.541Z,9.50
2018-07-19T13:50:48.213Z,9.40
2018-07-19T13:53:38.401Z,10.23
2018-07-19T13:56:08.056Z,9.70
2018-07-19T13:58:37.838Z,10.00
2018-07-19T14:01:06.861Z,9.10
2018-07-19T14:03:35.668Z,9.40
2018-07-19T14:06:04.653Z,8.17
2018-07-19T14:08:33.287Z,9.43
2018-07-19T14:11:02.249Z,9.50
2018-07-19T14:13:31.227Z,8.68
2018-07-19T14:16:00.594Z,8.35
2018-07-19T14:18:29.786Z,8.20
2018-07-19T14:20:58.485Z,8.38
2018-07-19T14:23:28.077Z,8.38
2018-07-19T14:25:56.788Z,8.08
2018-07-19T14:28:25.403Z,8.50
2018-07-19T14:30:54.402Z,8.50
2018-07-19T14:33:23.012Z,8.18
2018-07-19T14:35:51.939Z,8.85
2018-07-19T14:38:20.552Z,8.60
2018-07-19T14:40:49.539Z,8.63
2018-07-19T14:43:18.253Z,8.50
2018-07-19T14:45:46.886Z,8.53
2018-07-19T14:48:15.505Z,8.70
2018-07-19T14:50:44.149Z,9.10
2018-07-19T14:53:13.149Z,9.10
2018-07-19T14:55:42.722Z,9.00
2018-07-19T14:58:12.087Z,8.90
2018-07-19T15:00:41.192Z,9.10
2018-07-19T15:03:10.123Z,9.20
2018-07-19T15:05:38.826Z,9.57
2018-07-19T15:08:09.884Z,9.10
2018-07-19T15:10:38.892Z,8.53
2018-07-19T15:13:07.592Z,9.07
2018-07-19T15:15:36.452Z,9.50
2018-07-19T15:18:05.190Z,9.67
2018-07-19T15:20:33.951Z,9.70
2018-07-19T15:23:03.013Z,9.70
2018-07-19T15:25:31.991Z,9.67
2018-07-19T15:28:00.629Z,9.33
2018-07-19T15:30:29.410Z,9.30
2018-07-19T15:32:58.098Z,9.30
2018-07-19T15:35:26.760Z,9.70
2018-07-19T15:37:55.743Z,9.27
2018-07-19T15:40:24.356Z,9.00
2018-07-19T15:42:53.582Z,9.43
2018-07-19T15:45:23.696Z,9.30
2018-07-19T15:47:53.271Z,9.67
2018-07-19T15:50:21.898Z,9.57
2018-07-19T15:52:50.592Z,9.60
2018-07-19T15:55:19.281Z,9.40
2018-07-19T15:57:48.233Z,9.83
2018-07-19T16:00:17.539Z,9.50
2018-07-19T16:02:46.432Z,9.40
2018-07-19T16:05:15.406Z,9.93
2018-07-19T16:07:44.110Z,9.53
2018-07-19T16:10:13.295Z,9.83
2018-07-19T16:12:43.389Z,9.90
2018-07-19T16:15:12.318Z,10.10
2018-07-19T16:17:41.002Z,9.90
2018-07-19T16:20:10.083Z,10.20
2018-07-19T16:22:39.230Z,9.77
2018-07-19T16:25:07.985Z,10.07
2018-07-19T16:27:36.928Z,9.63
2018-07-19T16:30:06.178Z,10.13
2018-07-19T16:32:34.827Z,9.63
2018-07-19T16:35:03.553Z,9.93
2018-07-19T16:37:32.171Z,13.20
2018-07-19T16:40:00.757Z,15.40
2018-07-19T16:42:29.480Z,16.60
2018-07-19T16:44:58.212Z,9.77
2018-07-19T16:47:26.925Z,16.23
2018-07-19T16:49:55.902Z,10.47
2018-07-19T16:52:24.564Z,10.50
2018-07-19T16:54:53.212Z,10.40
2018-07-19T16:57:22.140Z,9.80
2018-07-19T16:59:51.300Z,10.20
2018-07-19T17:02:20.518Z,10.20
2018-07-19T17:04:49.687Z,10.10
2018-07-19T17:07:18.554Z,9.90
2018-07-19T17:09:47.273Z,10.00
2018-07-19T17:12:15.988Z,10.20
2018-07-19T17:14:44.686Z,10.33
2018-07-19T17:17:13.637Z,10.10
2018-07-19T17:19:42.425Z,10.27
2018-07-19T17:22:11.456Z,10.37
2018-07-19T17:24:40.161Z,10.33
2018-07-19T17:27:09.226Z,10.70
2018-07-19T17:29:38.102Z,10.20
2018-07-19T17:32:08.247Z,10.23
2018-07-19T17:34:37.342Z,10.50
2018-07-19T17:37:06.910Z,10.13
2018-07-19T17:39:35.655Z,10.67
2018-07-19T17:42:05.236Z,10.47
2018-07-19T17:44:34.167Z,12.10
2018-07-19T17:47:02.876Z,10.43
2018-07-19T17:49:31.642Z,10.13
2018-07-19T17:52:00.905Z,10.37
2018-07-19T17:54:29.528Z,10.30
2018-07-19T17:56:58.946Z,10.03
2018-07-19T17:59:27.973Z,10.23
2018-07-19T18:01:57.069Z,10.23
2018-07-19T18:04:25.702Z,9.90
2018-07-19T18:06:54.504Z,10.20
2018-07-19T18:09:23.262Z,10.03
2018-07-19T18:11:51.906Z,11.07
2018-07-19T18:14:20.766Z,10.20
2018-07-19T18:16:50.892Z,10.27
2018-07-19T18:19:21.040Z,10.33
2018-07-19T18:21:49.728Z,11.60
2018-07-19T18:24:18.704Z,11.03
2018-07-19T18:26:47.473Z,10.27
2018-07-19T18:29:16.186Z,10.57
2018-07-19T18:31:45.161Z,11.20
2018-07-19T18:34:13.843Z,10.47
2018-07-19T18:36:42.502Z,10.80
2018-07-19T18:39:12.785Z,10.20
2018-07-19T18:41:41.591Z,10.00
2018-07-19T18:44:10.564Z,9.67
2018-07-19T18:46:39.860Z,9.90
2018-07-19T18:49:08.647Z,10.40
2018-07-19T18:51:37.276Z,9.83
2018-07-19T18:54:06.010Z,9.93
2018-07-19T18:56:36.442Z,10.17
2018-07-19T18:59:10.009Z,9.47
2018-07-19T19:01:38.754Z,10.17
2018-07-19T19:04:07.441Z,10.20
2018-07-19T19:06:36.480Z,10.47
2018-07-19T19:09:09.629Z,10.43
2018-07-19T19:11:38.292Z,9.90
2018-07-19T19:14:07.826Z,10.20
2018-07-19T19:16:36.400Z,10.00
2018-07-19T19:19:05.827Z,10.20
2018-07-19T19:21:34.809Z,10.03
2018-07-19T19:24:03.561Z,10.13
2018-07-19T19:26:32.597Z,10.00
2018-07-19T19:29:01.507Z,9.83
2018-07-19T19:31:31.869Z,9.77
2018-07-19T19:34:00.871Z,10.43
2018-07-19T19:36:29.925Z,9.97
2018-07-19T19:38:59.297Z,13.10
2018-07-19T19:41:27.965Z,10.40
2018-07-19T19:43:56.846Z,10.00
2018-07-19T19:46:25.594Z,10.03
2018-07-19T19:48:54.215Z,10.40
2018-07-19T19:51:23.542Z,10.27
2018-07-19T19:53:53.991Z,10.40
2018-07-19T19:56:22.797Z,10.60
2018-07-19T19:58:51.782Z,10.10
2018-07-19T20:01:20.483Z,10.10
2018-07-19T20:03:49.454Z,10.40
2018-07-19T20:06:18.211Z,9.73
2018-07-19T20:08:52.739Z,10.30
2018-07-19T20:11:21.507Z,10.50
2018-07-19T20:13:50.360Z,10.20
2018-07-19T20:16:19.076Z,10.30
2018-07-19T20:18:48.398Z,10.53
2018-07-19T20:21:23.069Z,10.53
2018-07-19T20:23:52.462Z,10.60
2018-07-19T20:26:21.326Z,10.43
2018-07-19T20:28:50.736Z,10.40
2018-07-19T20:31:19.327Z,10.67
2018-07-19T20:33:48.041Z,10.63
2018-07-19T20:36:17.169Z,10.97
2018-07-19T20:38:46.600Z,11.07
2018-07-19T20:41:16.083Z,10.30
2018-07-19T20:43:45.415Z,10.40
2018-07-19T20:46:20.345Z,10.43
2018-07-19T20:48:49.301Z,11.13
2018-07-19T20:51:18.842Z,11.03
2018-07-19T20:53:47.497Z,11.50
2018-07-19T20:56:16.263Z,11.00
2018-07-19T20:58:45.072Z,10.60
2018-07-19T21:01:14.072Z,11.20
2018-07-19T21:03:43.900Z,11.87
2018-07-19T21:06:13.028Z,11.80
2018-07-19T21:08:42.888Z,11.90
2018-07-19T21:11:11.802Z,11.07
2018-07-19T21:13:42.103Z,12.13
2018-07-19T21:16:11.832Z,12.17
2018-07-19T21:18:41.648Z,11.57
2018-07-19T21:21:11.481Z,11.30
2018-07-19T21:23:40.486Z,13.00
2018-07-19T21:26:09.200Z,11.90
2018-07-19T21:28:39.797Z,12.40
2018-07-19T21:31:08.760Z,12.70
2018-07-19T21:33:38.322Z,11.90
2018-07-19T21:36:06.951Z,12.40
2018-07-19T21:38:35.828Z,11.20
2018-07-19T21:41:05.076Z,12.20
2018-07-19T21:43:35.104Z,13.30
2018-07-19T21:46:04.264Z,11.97
2018-07-19T21:48:33.673Z,12.33
2018-07-19T21:51:02.600Z,12.57
2018-07-19T21:53:31.382Z,13.07
2018-07-19T21:56:00.325Z,13.07
2018-07-19T21:58:29.674Z,13.17
2018-07-19T22:01:03.494Z,13.90
2018-07-19T22:03:32.857Z,13.23
2018-07-19T22:06:01.821Z,12.17
2018-07-19T22:08:30.884Z,12.97
2018-07-19T22:11:00.799Z,13.13
2018-07-19T22:13:29.965Z,13.13
2018-07-19T22:15:59.056Z,12.57
2018-07-19T22:18:27.701Z,12.40
2018-07-19T22:20:56.396Z,13.37
2018-07-19T22:23:25.078Z,12.57
2018-07-19T22:25:54.028Z,12.53
2018-07-19T22:28:23.546Z,12.60
2018-07-19T22:30:52.597Z,12.20
2018-07-19T22:33:22.045Z,12.40
2018-07-19T22:35:50.947Z,12.97
2018-07-19T22:38:20.199Z,13.93
2018-07-19T22:40:49.083Z,13.00
2018-07-19T22:43:18.636Z,12.87
2018-07-19T22:45:47.486Z,12.90
2018-07-19T22:48:16.472Z,13.90
2018-07-19T22:50:45.422Z,13.10
2018-07-19T22:53:14.126Z,12.20
2018-07-19T22:55:42.716Z,13.50
2018-07-19T22:58:11.689Z,12.33
2018-07-19T23:00:40.428Z,13.73
2018-07-19T23:03:09.678Z,12.60
2018-07-19T23:05:38.662Z,12.50
2018-07-19T23:08:07.337Z,13.37
2018-07-19T23:10:36.038Z,12.73
2018-07-19T23:13:04.745Z,14.33
2018-07-19T23:15:33.383Z,13.33
2018-07-19T23:18:02.317Z,12.93
2018-07-19T23:20:31.062Z,13.33
2018-07-19T23:23:00.103Z,12.67
2018-07-19T23:25:28.991Z,13.90
2018-07-19T23:27:57.999Z,12.63
2018-07-19T23:30:29.733Z,12.73
2018-07-19T23:32:58.414Z,12.43
2018-07-19T23:36:30.129Z,12.50
2018-07-19T23:39:07.421Z,14.07
2018-07-19T23:41:46.449Z,13.10
2018-07-19T23:44:19.558Z,12.47
2018-07-19T23:46:58.471Z,12.80
2018-07-19T23:49:27.374Z,12.73
2018-07-19T23:51:56.273Z,13.63
2018-07-19T23:54:24.870Z,13.70
2018-07-19T23:56:53.495Z,13.30
2018-07-19T23:59:22.458Z,12.97
